الصفحة الرئيسية
METAR-TAF:

METAR-TAF

مطار :

Wasilla, ألاسكا, الولايات المتحدة

دائرة عرض: 61-34-19N, خط طول: 149-32-26W, ارتفاع: 106 متر

مراقبة الطقس الحالي

تاريخ ووقت الإصدار 24 دقيقة قبل الساعة 17:56UTC
رياح هادئة
درجة الحرارة -9°درجة مئوية
الرطوبة 62%
ضغط 1016 hPa
الرؤية: 16.1 كم
ملبد بالغيوم على ارتفاع 7000 قدم

METAR: PAWS 041756Z AUTO 00000KT 10SM OVC070 M09/M15 A2999 RMK AO2 SLP164 T10941150 11089 21100 58004 FZRANO

زمن: 09:20 (18:20 UTC)


TAF: مفقودة

أرصاد الطقس والتوقعات من أكثر من 4000 مطار (تقارير الطقس للمطار METAR والتنبؤ بالطقس بالمطارTAF).

المحطات المتاحة هي النقط الصفراء والحمراء على الخريطة.

حرك المؤشر فوق النقطة لمعرفة اسم المحطة.

ثم انقر لمعرفة أرصاد وتوقعات الطقس.

لتغيير الخارطة: اضغط على الأزرار الخضراء مع رمز الصليب الأسود للتكبير. على الزر الأخضر مع شرطة للتصغير، أو على الأسهم الخضراء للخرائط المجاورة.


METAR-TAF: